Time;durP1;ratioP1;P1;durP2;ratioP2;P2;SDS_P1;SDS_P2;PMS_P1;PMS_P2;Temp;Humidity;BMP_temperature;BMP_pressure;BME280_temperature;BME280_humidity;BME280_pressure;Samples;Min_cycle;Max_cycle;Signal;HPM_P1;HPM_P2
2023/10/04 00:02:09;;;;;;;13.50;2.72;;;;;;;11.28;100.00;101180.53;5026794;28;20415;-86
2023/10/04 00:04:44;;;;;;;10.80;2.57;;;;;;;11.23;100.00;101171.25;5042587;28;20433;-86
2023/10/04 00:07:17;;;;;;;15.88;2.92;;;;;;;11.22;100.00;101177.00;5026126;28;21119;-86
2023/10/04 00:09:45;;;;;;;12.23;2.83;;;;;;;11.23;100.00;101178.63;5041642;28;20434;-85
2023/10/04 00:12:13;;;;;;;12.32;2.40;;;;;;;11.27;100.00;101185.16;5039659;28;20875;-85
2023/10/04 00:14:42;;;;;;;13.10;2.70;;;;;;;11.32;100.00;101187.06;5027738;28;20419;-85
2023/10/04 00:17:15;;;;;;;12.25;2.67;;;;;;;11.20;100.00;101192.81;5032112;28;20430;-85
2023/10/04 00:19:49;;;;;;;13.68;2.50;;;;;;;11.22;100.00;101193.34;5029318;28;20422;-85
2023/10/04 00:22:22;;;;;;;11.57;2.70;;;;;;;11.20;100.00;101188.16;5027508;28;20414;-86
2023/10/04 00:24:57;;;;;;;10.18;2.60;;;;;;;11.33;100.00;101197.69;5026027;28;21257;-86
2023/10/04 00:27:25;;;;;;;12.57;2.40;;;;;;;11.33;100.00;101194.16;5038894;28;20429;-85
2023/10/04 00:29:54;;;;;;;13.50;2.40;;;;;;;11.38;100.00;101196.91;5045209;28;20535;-85
2023/10/04 00:32:27;;;;;;;11.90;2.70;;;;;;;11.30;100.00;101200.97;5025771;28;20419;-85
2023/10/04 00:34:58;;;;;;;12.52;2.60;;;;;;;11.37;100.00;101200.69;5023908;28;20951;-86
2023/10/04 00:37:27;;;;;;;14.10;2.40;;;;;;;11.33;100.00;101203.16;5021305;28;20428;-86
2023/10/04 00:40:00;;;;;;;10.43;2.25;;;;;;;11.40;100.00;101203.69;5037306;28;20431;-85
2023/10/04 00:42:28;;;;;;;11.93;2.53;;;;;;;11.37;100.00;101212.41;5026196;28;20427;-86
2023/10/04 00:45:01;;;;;;;9.17;2.23;;;;;;;11.32;100.00;101209.69;5036209;28;20427;-84
2023/10/04 00:47:35;;;;;;;11.00;2.08;;;;;;;11.47;100.00;101208.06;5045358;28;20423;-86
2023/10/04 00:50:15;;;;;;;7.68;2.00;;;;;;;11.49;100.00;101217.59;5037552;28;20415;-85
2023/10/04 00:52:53;;;;;;;13.52;2.13;;;;;;;11.35;100.00;101216.50;5022937;28;20418;-85
2023/10/04 00:55:29;;;;;;;10.55;2.28;;;;;;;11.44;100.00;101222.25;5031290;28;20783;-85
2023/10/04 00:57:57;;;;;;;11.55;2.08;;;;;;;11.50;100.00;101223.84;5040375;28;20415;-86
2023/10/04 01:00:26;;;;;;;10.15;2.38;;;;;;;11.40;100.00;101225.47;5038311;28;20425;-85
2023/10/04 01:02:54;;;;;;;10.88;2.50;;;;;;;11.45;100.00;101230.13;5027017;28;20422;-85
2023/10/04 01:05:30;;;;;;;10.82;2.40;;;;;;;11.38;100.00;101233.13;5024588;28;20426;-86
2023/10/04 01:08:00;;;;;;;9.60;2.55;;;;;;;11.56;100.00;101233.69;5029232;28;20423;-83
2023/10/04 01:10:32;;;;;;;8.88;2.20;;;;;;;11.52;100.00;101221.69;5045414;28;20434;-85
2023/10/04 01:13:03;;;;;;;9.25;2.30;;;;;;;11.50;100.00;101226.59;5030681;28;20430;-86
2023/10/04 01:15:39;;;;;;;11.40;2.30;;;;;;;11.52;100.00;101221.69;5029047;28;20422;-85
2023/10/04 01:18:10;;;;;;;9.60;2.25;;;;;;;11.62;100.00;101223.59;5027368;28;20843;-87
2023/10/04 01:20:46;;;;;;;10.02;2.47;;;;;;;11.55;100.00;101224.69;5024541;28;20879;-86
2023/10/04 01:23:20;;;;;;;11.23;2.33;;;;;;;11.62;100.00;101229.84;5023541;28;21023;-86
2023/10/04 01:25:54;;;;;;;8.27;2.20;;;;;;;11.61;100.00;101230.94;5028430;28;20426;-87
2023/10/04 01:28:30;;;;;;;9.10;2.40;;;;;;;11.61;100.00;101225.50;5029987;28;20427;-86
2023/10/04 01:31:00;;;;;;;8.32;2.22;;;;;;;11.61;100.00;101222.75;5022548;28;20423;-87
2023/10/04 01:33:33;;;;;;;11.38;2.15;;;;;;;11.61;100.00;101227.41;5030637;28;20423;-86
2023/10/04 01:36:03;;;;;;;9.30;2.53;;;;;;;11.52;100.00;101225.22;5025189;28;20409;-85
2023/10/04 01:38:38;;;;;;;9.80;2.10;;;;;;;11.67;100.00;101234.47;5031479;28;20783;-86
2023/10/04 01:41:09;;;;;;;9.50;2.38;;;;;;;11.57;100.00;101227.97;5043897;28;20440;-83
2023/10/04 01:43:42;;;;;;;9.00;2.17;;;;;;;11.51;100.00;101226.31;5029251;28;20926;-85
2023/10/04 01:46:12;;;;;;;9.18;2.22;;;;;;;11.55;100.00;101223.88;5022270;28;20419;-85
2023/10/04 01:48:45;;;;;;;10.57;2.30;;;;;;;11.52;100.00;101229.88;5022870;28;20827;-87
2023/10/04 01:51:18;;;;;;;9.40;2.45;;;;;;;11.50;100.00;101232.88;5028271;28;20422;-83
2023/10/04 01:53:47;;;;;;;9.50;2.20;;;;;;;11.49;100.00;101230.41;5028883;28;20533;-83
2023/10/04 01:56:22;;;;;;;9.85;2.45;;;;;;;11.50;100.00;101232.88;5019877;28;20430;-83
2023/10/04 01:58:55;;;;;;;7.22;2.05;;;;;;;11.37;100.00;101236.13;5016943;28;20428;-84
2023/10/04 02:01:28;;;;;;;13.15;2.40;;;;;;;11.53;100.00;101240.50;5021629;28;20422;-82
2023/10/04 02:03:59;;;;;;;12.45;2.47;;;;;;;11.51;100.00;101244.59;5021248;28;20419;-83
2023/10/04 02:06:34;;;;;;;9.00;1.88;;;;;;;11.51;100.00;101244.59;5026816;28;20427;-83
2023/10/04 02:09:11;;;;;;;12.38;2.35;;;;;;;11.53;100.00;101245.13;5039676;28;20419;-83
2023/10/04 02:11:44;;;;;;;10.63;2.05;;;;;;;11.47;100.00;101240.75;5018961;28;20427;-84
2023/10/04 02:14:12;;;;;;;9.80;2.08;;;;;;;11.52;100.00;101238.06;5040034;28;20444;-82
2023/10/04 02:16:46;;;;;;;14.43;2.20;;;;;;;11.50;100.00;101243.78;5033776;28;20430;-83
2023/10/04 02:19:14;;;;;;;9.38;1.95;;;;;;;11.61;100.00;101247.28;5018909;28;20409;-83
2023/10/04 02:21:50;;;;;;;10.80;2.17;;;;;;;11.68;100.00;101239.69;5033205;28;20902;-83
2023/10/04 02:24:24;;;;;;;10.38;2.30;;;;;;;11.60;100.00;101255.75;5022265;28;20427;-83
2023/10/04 02:26:57;;;;;;;9.85;2.13;;;;;;;11.59;100.00;101246.75;5019498;28;20911;-83
2023/10/04 02:29:31;;;;;;;9.98;2.08;;;;;;;11.57;100.00;101246.22;5020472;28;20435;-83
2023/10/04 02:32:08;;;;;;;8.57;2.00;;;;;;;11.65;100.00;101251.13;5035842;28;20673;-83
2023/10/04 02:34:36;;;;;;;9.50;2.00;;;;;;;11.54;100.00;101253.00;5033207;28;20421;-82
2023/10/04 02:37:10;;;;;;;9.70;2.27;;;;;;;11.53;100.00;101254.13;5018770;28;20469;-82
2023/10/04 02:39:47;;;;;;;10.23;2.25;;;;;;;11.58;100.00;101256.03;5023734;28;20440;-82
2023/10/04 02:42:21;;;;;;;11.30;2.22;;;;;;;11.42;100.00;101247.03;5017943;28;20430;-83
2023/10/04 02:44:49;;;;;;;10.10;2.13;;;;;;;11.60;100.00;101248.41;5039433;28;20432;-82
2023/10/04 02:47:17;;;;;;;10.32;2.40;;;;;;;11.53;100.00;101247.84;5025653;28;20422;-84
2023/10/04 02:49:51;;;;;;;9.53;2.60;;;;;;;11.49;100.00;101249.47;5016426;28;20418;-83
2023/10/04 02:52:19;;;;;;;10.23;2.38;;;;;;;11.45;100.00;101243.78;5036927;28;20431;-83
2023/10/04 02:54:53;;;;;;;8.07;2.25;;;;;;;11.45;100.00;101260.13;5022758;28;20415;-83
2023/10/04 02:57:22;;;;;;;12.50;2.50;;;;;;;11.41;100.00;101264.47;5035206;28;20424;-84
2023/10/04 02:59:55;;;;;;;11.53;2.40;;;;;;;11.51;100.00;101259.03;5023351;28;20478;-83
2023/10/04 03:02:30;;;;;;;10.07;2.20;;;;;;;11.56;100.00;101259.03;5034041;28;20420;-83
2023/10/04 03:05:03;;;;;;;9.70;1.97;;;;;;;11.43;100.00;101256.84;5038729;28;20817;-83
2023/10/04 03:07:33;;;;;;;14.18;2.20;;;;;;;11.51;100.00;101263.66;5020638;28;20416;-82
2023/10/04 03:10:10;;;;;;;10.90;2.63;;;;;;;11.43;100.00;101256.03;5037248;28;20410;-83
2023/10/04 03:12:45;;;;;;;10.83;2.10;;;;;;;11.63;100.00;101249.75;5024989;28;20426;-84
2023/10/04 03:15:18;;;;;;;11.68;2.42;;;;;;;11.52;100.00;101251.69;5029429;28;20759;-82
2023/10/04 03:17:53;;;;;;;10.50;2.35;;;;;;;11.51;100.00;101255.50;5046550;28;21241;-83
2023/10/04 03:20:29;;;;;;;11.37;2.40;;;;;;;11.54;100.00;101247.56;5040756;28;20887;-82
2023/10/04 03:23:11;;;;;;;11.65;2.53;;;;;;;11.60;100.00;101259.31;5040832;28;20438;-82
2023/10/04 03:25:46;;;;;;;11.20;2.75;;;;;;;11.60;100.00;101256.59;5039502;28;20436;-82
2023/10/04 03:28:25;;;;;;;8.98;2.42;;;;;;;11.67;100.00;101261.75;5046399;28;20433;-83
2023/10/04 03:30:53;;;;;;;11.02;2.67;;;;;;;11.64;100.00;101254.13;5029394;28;20424;-82
2023/10/04 03:33:27;;;;;;;11.57;2.50;;;;;;;11.63;100.00;101261.50;5023237;28;21113;-83
2023/10/04 03:36:04;;;;;;;13.57;2.70;;;;;;;11.57;100.00;101262.56;5047431;28;20428;-84
2023/10/04 03:38:33;;;;;;;14.02;2.97;;;;;;;11.51;100.00;101267.19;5037770;28;20416;-84
2023/10/04 03:41:08;;;;;;;13.80;2.67;;;;;;;11.67;100.00;101276.22;5039605;28;20422;-82
2023/10/04 03:43:42;;;;;;;16.85;3.00;;;;;;;11.54;100.00;101266.66;5028867;28;20434;-82
2023/10/04 03:46:18;;;;;;;11.82;2.80;;;;;;;11.51;100.00;101280.03;5029243;28;20434;-83
2023/10/04 03:48:51;;;;;;;12.30;2.63;;;;;;;11.54;100.00;101276.75;5039961;28;20416;-84
2023/10/04 03:51:25;;;;;;;8.30;2.70;;;;;;;11.57;100.00;101278.91;5036813;28;20422;-82
2023/10/04 03:54:06;;;;;;;11.95;2.78;;;;;;;11.66;100.00;101284.66;5038765;28;20428;-82
2023/10/04 03:56:43;;;;;;;11.70;2.58;;;;;;;11.51;100.00;101280.81;5034094;28;20431;-84
2023/10/04 03:59:12;;;;;;;11.50;2.63;;;;;;;11.70;100.00;101293.94;5025373;28;20415;-83
2023/10/04 04:01:40;;;;;;;10.38;2.40;;;;;;;11.66;100.00;101281.94;5037879;28;20412;-83
2023/10/04 04:04:17;;;;;;;11.50;2.45;;;;;;;11.62;100.00;101287.09;5023965;28;20409;-82
2023/10/04 04:06:52;;;;;;;9.88;2.30;;;;;;;11.57;100.00;101268.00;5040546;28;20411;-83
2023/10/04 04:09:25;;;;;;;12.80;2.77;;;;;;;11.53;100.00;101280.56;5023711;28;20439;-84
2023/10/04 04:11:54;;;;;;;10.23;2.38;;;;;;;11.62;100.00;101280.84;5025886;28;20435;-84
2023/10/04 04:14:23;;;;;;;12.17;2.67;;;;;;;11.60;100.00;101283.00;5038207;28;20456;-84
2023/10/04 04:16:56;;;;;;;10.05;2.08;;;;;;;11.49;100.00;101276.72;5043615;28;20420;-83
2023/10/04 04:19:30;;;;;;;12.18;2.40;;;;;;;11.55;100.00;101278.38;5034674;28;20779;-83
2023/10/04 04:22:04;;;;;;;12.40;2.20;;;;;;;11.54;100.00;101282.19;5023309;28;20427;-83
2023/10/04 04:24:37;;;;;;;12.30;2.38;;;;;;;11.65;100.00;101281.09;5024053;28;20426;-83
2023/10/04 04:27:07;;;;;;;8.05;2.38;;;;;;;11.60;100.00;101283.00;5023247;28;20430;-83
2023/10/04 04:29:37;;;;;;;9.63;2.55;;;;;;;11.49;100.00;101284.91;5019492;28;20432;-82
2023/10/04 04:32:08;;;;;;;8.50;2.50;;;;;;;11.46;100.00;101290.91;5035439;28;20785;-83
2023/10/04 04:34:38;;;;;;;10.95;2.30;;;;;;;11.37;100.00;101290.63;5024799;28;20416;-83
2023/10/04 04:37:14;;;;;;;9.73;2.30;;;;;;;11.40;100.00;101285.44;5038128;28;20426;-83
2023/10/04 04:39:47;;;;;;;12.85;2.35;;;;;;;11.28;100.00;101284.88;5023378;28;20420;-83
2023/10/04 04:42:19;;;;;;;12.55;2.20;;;;;;;11.25;100.00;101290.06;5035249;28;20862;-83
2023/10/04 04:44:56;;;;;;;13.40;2.30;;;;;;;11.26;100.00;101295.25;5022256;28;20428;-82
2023/10/04 04:47:24;;;;;;;13.23;2.40;;;;;;;11.28;100.00;101297.69;5020665;28;20965;-83
2023/10/04 04:49:59;;;;;;;10.75;2.50;;;;;;;11.29;100.00;101302.06;5026452;28;20431;-82
2023/10/04 04:52:33;;;;;;;11.63;2.28;;;;;;;11.23;100.00;101306.69;5028609;28;20419;-83
2023/10/04 04:55:02;;;;;;;8.70;2.20;;;;;;;11.38;100.00;101292.28;5039091;28;20422;-83
2023/10/04 04:57:32;;;;;;;9.07;2.25;;;;;;;11.33;100.00;101303.97;5022072;28;20446;-84
2023/10/04 05:00:30;;;;;;;10.70;3.03;;;;;;;11.38;100.00;101295.81;5018790;28;20436;-84
2023/10/04 05:03:00;;;;;;;10.00;2.20;;;;;;;11.37;100.00;101304.25;5027089;28;20445;-83
2023/10/04 05:05:34;;;;;;;11.23;2.15;;;;;;;11.27;100.00;101310.50;5040082;28;20441;-83
2023/10/04 05:08:02;;;;;;;11.48;2.30;;;;;;;11.21;100.00;101312.41;5024846;28;20439;-83
2023/10/04 05:10:38;;;;;;;9.93;2.20;;;;;;;11.25;100.00;101326.28;5034171;28;20423;-83
2023/10/04 05:13:13;;;;;;;11.18;2.85;;;;;;;11.23;100.00;101320.31;5037331;28;20468;-83
2023/10/04 05:15:42;;;;;;;12.60;2.90;;;;;;;11.37;100.00;101337.75;5025153;28;20428;-83
2023/10/04 05:18:15;;;;;;;9.65;2.50;;;;;;;11.43;100.00;101330.41;5021376;28;20406;-83
2023/10/04 05:20:50;;;;;;;12.93;2.63;;;;;;;11.44;100.00;101339.44;5024656;28;20430;-82
2023/10/04 05:23:25;;;;;;;10.68;2.17;;;;;;;11.40;100.00;101348.13;5020714;28;20430;-83
2023/10/04 05:25:59;;;;;;;10.30;2.23;;;;;;;11.40;100.00;101339.94;5020396;28;20475;-83
2023/10/04 05:28:34;;;;;;;12.15;2.80;;;;;;;11.38;100.00;101349.50;5025965;28;20872;-83
2023/10/04 05:31:08;;;;;;;15.15;2.30;;;;;;;11.42;100.00;101350.59;5019696;28;20433;-84
2023/10/04 05:33:42;;;;;;;9.23;2.25;;;;;;;11.51;100.00;101348.16;5023734;28;20457;-83
2023/10/04 05:36:17;;;;;;;9.63;2.53;;;;;;;11.46;100.00;101356.31;5034003;28;20441;-82
2023/10/04 05:38:45;;;;;;;10.32;2.30;;;;;;;11.48;100.00;101356.88;5021458;28;20795;-83
2023/10/04 05:41:19;;;;;;;10.75;2.30;;;;;;;11.43;100.00;101362.31;5026689;28;20438;-81
2023/10/04 05:43:53;;;;;;;10.27;2.20;;;;;;;11.48;100.00;101365.88;5017702;28;20424;-88
2023/10/04 05:46:27;;;;;;;12.68;2.55;;;;;;;11.47;100.00;101382.50;5020087;28;20943;-83
2023/10/04 05:49:00;;;;;;;14.77;2.40;;;;;;;11.47;100.00;101379.78;5021942;28;20441;-82
2023/10/04 05:51:29;;;;;;;10.63;2.40;;;;;;;11.57;100.00;101382.50;5036176;28;20423;-81
2023/10/04 05:54:03;;;;;;;10.63;2.43;;;;;;;11.39;100.00;101381.09;5021704;28;20905;-83
2023/10/04 05:56:36;;;;;;;13.52;2.58;;;;;;;11.41;100.00;101378.94;5019195;28;20459;-83
2023/10/04 05:59:10;;;;;;;11.32;2.30;;;;;;;11.48;100.00;101384.13;5022117;28;20438;-82
2023/10/04 06:01:38;;;;;;;13.27;2.53;;;;;;;11.46;100.00;101386.31;5020026;28;20439;-83
2023/10/04 06:04:11;;;;;;;10.65;2.78;;;;;;;11.48;100.00;101376.78;5016306;28;20816;-82
2023/10/04 06:06:46;;;;;;;9.27;2.50;;;;;;;11.57;100.00;101382.50;5023259;28;20429;-82
2023/10/04 06:09:28;;;;;;;9.70;3.00;;;;;;;11.47;100.00;101387.94;5018449;28;20435;-82
2023/10/04 06:11:56;;;;;;;9.52;2.88;;;;;;;11.58;100.00;101393.13;5035105;28;20448;-82
2023/10/04 06:14:31;;;;;;;12.10;3.40;;;;;;;11.69;100.00;101396.72;5040181;28;20424;-81
2023/10/04 06:17:00;;;;;;;12.17;3.20;;;;;;;11.74;100.00;101395.91;5024542;28;20442;-86
2023/10/04 06:19:28;;;;;;;13.82;3.70;;;;;;;11.66;100.00;101393.72;5025681;28;20434;-84
2023/10/04 06:21:56;;;;;;;14.05;3.90;;;;;;;11.73;100.00;101397.81;5021293;28;20432;-83
2023/10/04 06:24:30;;;;;;;13.73;3.78;;;;;;;11.69;100.00;101406.81;5026158;28;20442;-84
2023/10/04 06:27:04;;;;;;;11.97;3.30;;;;;;;11.70;100.00;101403.81;5022902;28;20441;-84
2023/10/04 06:29:33;;;;;;;12.13;2.97;;;;;;;11.70;100.00;101403.81;5026858;28;20903;-84
2023/10/04 06:32:03;;;;;;;10.32;3.17;;;;;;;11.69;100.00;101404.88;5021403;28;22094;-85
2023/10/04 06:34:36;;;;;;;17.60;3.88;;;;;;;11.70;100.00;101414.72;5025182;28;20437;-86
2023/10/04 06:37:04;;;;;;;11.07;3.17;;;;;;;11.84;100.00;101403.28;5026501;28;20442;-86
2023/10/04 06:39:37;;;;;;;17.10;4.10;;;;;;;11.78;100.00;101415.28;5019362;28;20432;-85
2023/10/04 06:42:05;;;;;;;12.97;3.93;;;;;;;11.83;100.00;101410.63;5026888;28;20435;-85
2023/10/04 06:44:41;;;;;;;14.75;3.95;;;;;;;11.83;100.00;101415.28;5021931;28;20436;-84
2023/10/04 06:47:10;;;;;;;10.88;3.30;;;;;;;11.95;100.00;101407.69;5042387;28;20897;-85
2023/10/04 06:49:38;;;;;;;12.40;3.50;;;;;;;11.95;100.00;101404.16;5028721;28;20422;-85
2023/10/04 06:52:11;;;;;;;12.35;3.17;;;;;;;11.88;100.00;101418.84;5026720;28;20424;-86
2023/10/04 06:54:44;;;;;;;14.55;2.88;;;;;;;11.84;100.00;101422.38;5021263;28;20780;-86
2023/10/04 06:57:18;;;;;;;13.25;3.47;;;;;;;11.88;100.00;101421.56;5029221;28;20431;-84
2023/10/04 06:59:53;;;;;;;11.30;3.22;;;;;;;11.90;100.00;101421.28;5027000;28;20442;-84
2023/10/04 07:02:26;;;;;;;12.68;3.10;;;;;;;11.90;100.00;101430.31;5037701;28;20436;-85
2023/10/04 07:04:55;;;;;;;12.68;2.75;;;;;;;12.04;100.00;101438.81;5024532;28;20423;-87
2023/10/04 07:07:28;;;;;;;10.63;2.53;;;;;;;12.07;100.00;101430.09;4983366;28;20950;-87
2023/10/04 07:09:57;;;;;;;13.00;2.55;;;;;;;12.06;100.00;101433.09;5012049;28;20440;-87
2023/10/04 07:12:31;;;;;;;9.98;3.30;;;;;;;12.18;100.00;101430.06;5019027;28;20442;-83
2023/10/04 07:15:01;;;;;;;11.35;2.80;;;;;;;12.13;100.00;101443.75;5020052;28;20425;-84
2023/10/04 07:17:35;;;;;;;9.20;2.30;;;;;;;12.22;100.00;101444.81;5012952;28;20429;-86
2023/10/04 07:20:07;;;;;;;12.48;3.35;;;;;;;12.12;100.00;101456.53;5008567;28;21023;-85
2023/10/04 07:22:41;;;;;;;17.17;3.70;;;;;;;12.13;100.00;101455.47;5019881;28;20442;-86
2023/10/04 07:25:16;;;;;;;13.32;3.10;;;;;;;12.28;100.00;101448.34;5020192;28;20437;-86
2023/10/04 07:27:46;;;;;;;12.38;3.42;;;;;;;12.35;100.00;101444.28;5019127;28;20897;-85
2023/10/04 07:30:22;;;;;;;14.75;3.83;;;;;;;12.46;100.00;101450.56;5021960;28;20415;-85
2023/10/04 07:32:50;;;;;;;15.80;4.65;;;;;;;12.61;100.00;101463.38;5015260;28;20430;-85
2023/10/04 07:35:25;;;;;;;11.25;3.58;;;;;;;12.69;100.00;101457.38;5019698;28;20444;-85
2023/10/04 07:37:53;;;;;;;12.25;3.50;;;;;;;12.68;100.00;101469.38;5016352;28;20998;-87
2023/10/04 07:40:23;;;;;;;13.38;3.60;;;;;;;12.60;100.00;101469.94;5029467;28;21309;-83
2023/10/04 07:42:56;;;;;;;15.90;3.97;;;;;;;12.56;100.00;101479.78;5010743;28;20444;-85
2023/10/04 07:45:28;;;;;;;15.88;3.55;;;;;;;12.42;100.00;101479.50;5014823;28;20414;-83
2023/10/04 07:47:57;;;;;;;11.70;3.60;;;;;;;12.45;100.00;101486.31;5018015;28;20437;-86
2023/10/04 07:50:31;;;;;;;16.90;3.67;;;;;;;12.56;100.00;101488.75;5021495;28;20446;-86
2023/10/04 07:53:06;;;;;;;15.38;3.13;;;;;;;12.66;100.00;101489.88;5022537;28;20450;-87
2023/10/04 07:55:40;;;;;;;15.10;3.70;;;;;;;12.65;100.00;101493.69;5021438;28;20437;-86
2023/10/04 07:58:11;;;;;;;11.13;3.08;;;;;;;12.77;100.00;101488.75;5018475;28;20431;-86
2023/10/04 08:00:41;;;;;;;11.07;3.60;;;;;;;12.92;100.00;101493.38;5019918;28;20430;-86
2023/10/04 08:03:10;;;;;;;14.60;3.90;;;;;;;13.01;100.00;101485.44;5020806;28;20433;-85
2023/10/04 08:05:39;;;;;;;13.82;3.28;;;;;;;13.09;100.00;101487.59;4998388;28;20489;-85
2023/10/04 08:08:29;;;;;;;16.95;3.40;;;;;;;13.08;100.00;101499.66;5017846;28;20427;-87
2023/10/04 08:11:03;;;;;;;10.65;2.70;;;;;;;13.18;100.00;101496.06;5021776;28;20425;-85
2023/10/04 08:14:27;;;;;;;14.77;2.80;;;;;;;13.12;100.00;101517.13;5025136;28;20425;-86
2023/10/04 08:17:25;;;;;;;15.48;2.72;;;;;;;13.27;100.00;101527.19;5018175;28;20421;-86
2023/10/04 08:20:53;;;;;;;13.13;2.83;;;;;;;13.17;100.00;101513.56;5019372;28;20941;-88
2023/10/04 08:23:55;;;;;;;13.27;2.90;;;;;;;13.01;100.00;101537.34;5021248;28;20431;-88
2023/10/04 08:26:31;;;;;;;9.93;2.75;;;;;;;12.96;100.00;101523.72;5018135;28;21260;-87
2023/10/04 08:29:05;;;;;;;11.98;2.80;;;;;;;13.16;100.00;101528.31;5018310;28;20432;-87
2023/10/04 08:31:58;;;;;;;13.48;2.47;;;;;;;12.94;100.00;101534.94;5018842;28;20426;-87
2023/10/04 08:34:30;;;;;;;15.75;2.60;;;;;;;13.05;100.00;101535.72;5019282;28;21770;-88
2023/10/04 08:36:59;;;;;;;14.30;2.85;;;;;;;12.98;100.00;101541.47;5022282;28;20433;-86
2023/10/04 08:39:33;;;;;;;14.40;3.00;;;;;;;13.25;100.00;101537.59;5019096;28;20897;-88
2023/10/04 08:42:06;;;;;;;10.85;2.47;;;;;;;13.15;100.00;101546.66;5020868;28;20433;-87
2023/10/04 08:44:34;;;;;;;12.80;2.67;;;;;;;13.24;100.00;101553.19;5018656;28;21104;-88
2023/10/04 08:47:08;;;;;;;10.82;2.50;;;;;;;13.12;100.00;101549.94;5018793;28;20443;-86
2023/10/04 08:49:50;;;;;;;12.90;2.55;;;;;;;13.16;100.00;101544.72;5020200;28;20414;-86
2023/10/04 08:52:37;;;;;;;9.73;2.33;;;;;;;13.48;100.00;101555.34;5020235;28;20442;-87
2023/10/04 08:55:16;;;;;;;12.15;2.30;;;;;;;13.32;100.00;101540.84;5019681;28;20436;-88
2023/10/04 08:57:53;;;;;;;15.63;2.70;;;;;;;13.65;100.00;101551.47;5020619;28;20433;-88
2023/10/04 09:00:28;;;;;;;16.65;2.97;;;;;;;13.63;100.00;101553.66;5019319;28;20423;-87
2023/10/04 09:03:04;;;;;;;11.00;2.50;;;;;;;13.64;100.00;101553.38;5022021;28;20430;-86
2023/10/04 09:05:36;;;;;;;15.43;2.97;;;;;;;13.58;100.00;101549.84;5006741;28;20461;-86
2023/10/04 09:08:10;;;;;;;12.98;2.45;;;;;;;13.70;100.00;101555.00;5021554;28;20429;-86
2023/10/04 09:10:39;;;;;;;13.80;2.60;;;;;;;13.74;100.00;101553.34;5017653;28;20522;-87
2023/10/04 09:13:13;;;;;;;17.40;3.17;;;;;;;13.69;100.00;101541.59;5035682;28;20452;-87
2023/10/04 09:15:46;;;;;;;13.93;3.00;;;;;;;13.72;100.00;101546.50;5021059;28;21336;-84
2023/10/04 09:18:25;;;;;;;11.52;2.58;;;;;;;13.81;100.00;101549.47;5018606;28;20432;-87
2023/10/04 09:21:14;;;;;;;14.95;2.92;;;;;;;13.83;100.00;101559.03;5018047;28;20433;-85
2023/10/04 09:23:43;;;;;;;12.35;2.45;;;;;;;13.90;100.00;101550.53;5019302;28;20438;-86
2023/10/04 09:26:17;;;;;;;15.23;2.70;;;;;;;13.97;100.00;101548.31;5017201;28;20432;-85
2023/10/04 09:28:49;;;;;;;12.32;2.70;;;;;;;13.98;100.00;101540.94;5017413;28;20428;-86
2023/10/04 09:31:26;;;;;;;12.73;2.42;;;;;;;13.94;100.00;101541.47;5016639;28;20437;-87
2023/10/04 09:33:56;;;;;;;13.07;2.95;;;;;;;13.87;100.00;101553.84;5036193;28;20438;-88
2023/10/04 09:36:45;;;;;;;10.05;2.58;;;;;;;13.94;100.00;101543.41;5019889;28;20425;-86
2023/10/04 09:39:23;;;;;;;10.60;2.33;;;;;;;14.02;100.00;101544.75;5013092;28;20430;-88
2023/10/04 09:41:54;;;;;;;16.05;2.55;;;;;;;14.25;100.00;101551.44;5021242;28;20447;-87
2023/10/04 09:44:24;;;;;;;12.45;2.70;;;;;;;14.19;100.00;101556.13;5022769;28;20923;-86
2023/10/04 09:47:01;;;;;;;11.93;2.90;;;;;;;14.25;100.00;101548.69;5017525;28;20926;-87
2023/10/04 09:49:36;;;;;;;12.25;2.63;;;;;;;14.31;100.00;101563.16;5020503;28;20416;-88
2023/10/04 09:52:07;;;;;;;13.63;2.60;;;;;;;14.25;100.00;101560.47;5016056;28;20904;-87
2023/10/04 09:54:36;;;;;;;15.77;2.80;;;;;;;14.21;100.00;101567.63;5019713;28;20438;-86
2023/10/04 09:57:07;;;;;;;12.70;2.35;;;;;;;14.38;100.00;101560.94;5015681;28;20433;-87
2023/10/04 09:59:43;;;;;;;11.68;2.38;;;;;;;14.38;100.00;101569.97;5014370;28;20438;-86
2023/10/04 10:02:19;;;;;;;14.02;2.80;;;;;;;14.70;100.00;101560.47;5018523;28;20435;-87
2023/10/04 10:04:50;;;;;;;12.02;2.30;;;;;;;14.43;100.00;101559.00;5023645;28;20425;-86
2023/10/04 10:07:31;;;;;;;15.00;3.53;;;;;;;14.55;100.00;101566.84;4999994;28;20419;-87
2023/10/04 10:10:10;;;;;;;15.03;2.60;;;;;;;14.60;100.00;101566.00;5020091;28;20512;-86
2023/10/04 10:12:39;;;;;;;14.00;2.45;;;;;;;14.53;100.00;101579.19;5022884;28;20435;-88
2023/10/04 10:15:09;;;;;;;13.40;2.77;;;;;;;14.44;100.00;101565.28;5015241;28;20434;-86
2023/10/04 10:17:46;;;;;;;8.70;2.05;;;;;;;14.48;100.00;101569.09;5020054;28;20989;-87
2023/10/04 10:20:20;;;;;;;12.98;2.60;;;;;;;14.38;100.00;101580.94;5017334;28;20422;-87
2023/10/04 10:23:14;;;;;;;17.45;2.58;;;;;;;14.50;100.00;101588.81;5018802;28;20804;-88
2023/10/04 10:26:35;;;;;;;13.07;2.50;;;;;;;14.71;100.00;101580.47;5018058;28;20421;-87
2023/10/04 10:29:04;;;;;;;12.10;2.67;;;;;;;14.56;100.00;101578.63;4920594;28;20603;-87
2023/10/04 10:31:32;;;;;;;17.23;2.80;;;;;;;14.55;100.00;101593.41;5001279;28;20430;-88
2023/10/04 10:34:02;;;;;;;9.40;2.47;;;;;;;14.61;100.00;101589.53;5019194;28;20425;-89
2023/10/04 10:36:31;;;;;;;10.18;2.50;;;;;;;14.81;100.00;101590.53;5016700;28;20843;-87
2023/10/04 10:39:19;;;;;;;11.52;2.25;;;;;;;14.97;100.00;101583.81;5018219;28;22185;-88
2023/10/04 10:41:57;;;;;;;15.43;3.03;;;;;;;15.03;100.00;101596.38;5019281;28;20448;-86
2023/10/04 10:44:30;;;;;;;13.77;2.30;;;;;;;15.27;100.00;101585.47;5026711;28;20885;-86
2023/10/04 10:47:06;;;;;;;13.57;2.22;;;;;;;15.05;100.00;101596.91;5022573;28;20433;-87
2023/10/04 10:49:57;;;;;;;10.90;2.40;;;;;;;15.08;100.00;101595.50;5020239;28;20438;-88
2023/10/04 10:52:38;;;;;;;11.75;2.30;;;;;;;15.35;100.00;101586.75;5021135;28;20417;-87
2023/10/04 10:55:27;;;;;;;13.90;2.50;;;;;;;15.46;100.00;101601.97;5022699;28;20785;-87
2023/10/04 10:57:58;;;;;;;13.70;2.53;;;;;;;15.52;100.00;101602.75;5018810;28;20435;-88
2023/10/04 11:00:51;;;;;;;14.77;3.08;;;;;;;15.33;100.00;101608.16;5021423;28;20546;-87
2023/10/04 11:03:26;;;;;;;9.73;2.47;;;;;;;15.50;100.00;101604.16;5019342;28;20948;-88
2023/10/04 11:06:11;;;;;;;14.60;2.47;;;;;;;15.34;100.00;101607.03;5021601;28;21776;-87
2023/10/04 11:08:39;;;;;;;12.30;2.67;;;;;;;15.25;100.00;101606.06;5014047;28;20442;-88
2023/10/04 11:11:16;;;;;;;12.45;2.45;;;;;;;15.16;100.00;101600.34;5026446;28;21004;-88
2023/10/04 11:13:48;;;;;;;11.63;2.63;;;;;;;15.13;100.00;101600.94;5015189;28;20423;-87
2023/10/04 11:16:29;;;;;;;10.45;2.60;;;;;;;15.23;100.00;101602.75;5015193;28;20819;-89
2023/10/04 11:19:06;;;;;;;10.35;2.55;;;;;;;15.48;100.00;101590.75;5016987;28;20418;-89
2023/10/04 11:21:45;;;;;;;21.35;7.53;;;;;;;15.59;100.00;101578.53;5031553;28;20425;-87
2023/10/04 11:24:16;;;;;;;13.20;3.22;;;;;;;15.48;100.00;101588.81;5031550;28;21205;-88
2023/10/04 11:26:58;;;;;;;13.30;2.75;;;;;;;15.46;100.00;101593.75;5019199;28;20503;-88
2023/10/04 11:29:28;;;;;;;13.25;2.60;;;;;;;15.59;100.00;101591.41;5019071;28;20434;-88
2023/10/04 11:31:58;;;;;;;10.40;2.67;;;;;;;15.69;100.00;101587.75;5018796;28;20529;-88
2023/10/04 11:34:45;;;;;;;10.05;2.83;;;;;;;15.78;100.00;101586.00;5037307;28;20435;-83
2023/10/04 11:37:17;;;;;;;11.43;2.70;;;;;;;15.49;100.00;101584.13;5038154;28;21348;-87
2023/10/04 11:39:54;;;;;;;14.20;2.85;;;;;;;15.47;100.00;101584.41;5021856;28;20410;-89
2023/10/04 11:42:25;;;;;;;10.05;2.70;;;;;;;15.59;100.00;101578.53;5023792;28;20777;-88
2023/10/04 11:44:53;;;;;;;12.18;3.08;;;;;;;15.44;100.00;101581.47;5021460;28;20434;-86